sensor_id;sensor_type;location;lat;lon;timestamp;pressure;altitude;pressure_sealevel;temperature
39959;BMP280;25639;53.634;9.880;2022-09-28T00:02:24;154308.91;;;7.86
39959;BMP280;25639;53.634;9.880;2022-09-28T00:04:49;154298.75;;;7.82
39959;BMP280;25639;53.634;9.880;2022-09-28T00:07:14;154303.81;;;7.84
39959;BMP280;25639;53.634;9.880;2022-09-28T00:09:39;154316.56;;;7.89
39959;BMP280;25639;53.634;9.880;2022-09-28T00:12:05;154279.63;;;7.74
39959;BMP280;25639;53.634;9.880;2022-09-28T00:14:30;154251.63;;;7.63
39959;BMP280;25639;53.634;9.880;2022-09-28T00:16:56;154282.19;;;7.75
39959;BMP280;25639;53.634;9.880;2022-09-28T00:19:21;154297.44;;;7.81
39959;BMP280;25639;53.634;9.880;2022-09-28T00:21:46;154273.28;;;7.72
39959;BMP280;25639;53.634;9.880;2022-09-28T00:24:12;154274.53;;;7.72
39959;BMP280;25639;53.634;9.880;2022-09-28T00:26:40;154280.91;;;7.75
39959;BMP280;25639;53.634;9.880;2022-09-28T00:29:06;154264.34;;;7.68
39959;BMP280;25639;53.634;9.880;2022-09-28T00:31:32;154245.28;;;7.60
39959;BMP280;25639;53.634;9.880;2022-09-28T00:33:58;154222.38;;;7.51
39959;BMP280;25639;53.634;9.880;2022-09-28T00:36:24;154246.53;;;7.61
39959;BMP280;25639;53.634;9.880;2022-09-28T00:38:52;154255.44;;;7.64
39959;BMP280;25639;53.634;9.880;2022-09-28T00:41:17;154263.09;;;7.68
39959;BMP280;25639;53.634;9.880;2022-09-28T00:43:42;154250.38;;;7.62
39959;BMP280;25639;53.634;9.880;2022-09-28T00:48:36;154226.16;;;7.53
39959;BMP280;25639;53.634;9.880;2022-09-28T00:51:04;154212.16;;;7.47
39959;BMP280;25639;53.634;9.880;2022-09-28T00:53:31;154219.81;;;7.50
39959;BMP280;25639;53.634;9.880;2022-09-28T00:56:03;154213.47;;;7.48
39959;BMP280;25639;53.634;9.880;2022-09-28T00:58:38;154175.28;;;7.32
39959;BMP280;25639;53.634;9.880;2022-09-28T01:01:05;154193.09;;;7.39
39959;BMP280;25639;53.634;9.880;2022-09-28T01:03:30;154193.09;;;7.39
39959;BMP280;25639;53.634;9.880;2022-09-28T01:05:57;154205.81;;;7.44
39959;BMP280;25639;53.634;9.880;2022-09-28T01:08:23;154162.53;;;7.27
39959;BMP280;25639;53.634;9.880;2022-09-28T01:10:51;154177.78;;;7.33
39959;BMP280;25639;53.634;9.880;2022-09-28T01:13:16;154166.38;;;7.29
39959;BMP280;25639;53.634;9.880;2022-09-28T01:15:45;154129.47;;;7.14
39959;BMP280;25639;53.634;9.880;2022-09-28T01:18:18;154133.25;;;7.15
39959;BMP280;25639;53.634;9.880;2022-09-28T01:23:31;154111.66;;;7.06
39959;BMP280;25639;53.634;9.880;2022-09-28T01:26:14;154090.03;;;6.98
39959;BMP280;25639;53.634;9.880;2022-09-28T01:28:42;154076.03;;;6.92
39959;BMP280;25639;53.634;9.880;2022-09-28T01:31:12;154058.22;;;6.85
39959;BMP280;25639;53.634;9.880;2022-09-28T01:33:38;154065.84;;;6.88
39959;BMP280;25639;53.634;9.880;2022-09-28T01:36:11;154034.03;;;6.75
39959;BMP280;25639;53.634;9.880;2022-09-28T01:38:47;154050.59;;;6.82
39959;BMP280;25639;53.634;9.880;2022-09-28T01:41:15;154016.22;;;6.68
39959;BMP280;25639;53.634;9.880;2022-09-28T01:43:42;154002.25;;;6.62
39959;BMP280;25639;53.634;9.880;2022-09-28T01:46:15;153983.19;;;6.55
39959;BMP280;25639;53.634;9.880;2022-09-28T01:48:47;153981.88;;;6.54
39959;BMP280;25639;53.634;9.880;2022-09-28T01:51:18;153983.19;;;6.55
39959;BMP280;25639;53.634;9.880;2022-09-28T01:53:48;153960.25;;;6.45
39959;BMP280;25639;53.634;9.880;2022-09-28T01:56:25;153948.84;;;6.41
39959;BMP280;25639;53.634;9.880;2022-09-28T01:58:58;153952.66;;;6.42
39959;BMP280;25639;53.634;9.880;2022-09-28T02:01:28;153939.94;;;6.37
39959;BMP280;25639;53.634;9.880;2022-09-28T02:03:59;153941.19;;;6.38
39959;BMP280;25639;53.634;9.880;2022-09-28T02:06:31;153948.84;;;6.41
39959;BMP280;25639;53.634;9.880;2022-09-28T02:08:59;153960.25;;;6.45
39959;BMP280;25639;53.634;9.880;2022-09-28T02:11:27;153932.28;;;6.34
39959;BMP280;25639;53.634;9.880;2022-09-28T02:13:54;153952.66;;;6.42
39959;BMP280;25639;53.634;9.880;2022-09-28T02:18:58;153934.84;;;6.35
39959;BMP280;25639;53.634;9.880;2022-09-28T02:21:28;153946.28;;;6.40
39959;BMP280;25639;53.634;9.880;2022-09-28T02:23:57;153955.16;;;6.43
39959;BMP280;25639;53.634;9.880;2022-09-28T02:26:26;153941.19;;;6.38
39959;BMP280;25639;53.634;9.880;2022-09-28T02:28:57;153971.72;;;6.50
39959;BMP280;25639;53.634;9.880;2022-09-28T02:31:22;153966.63;;;6.48
39959;BMP280;25639;53.634;9.880;2022-09-28T02:33:47;153962.81;;;6.46
39959;BMP280;25639;53.634;9.880;2022-09-28T02:36:14;153974.28;;;6.51
39959;BMP280;25639;53.634;9.880;2022-09-28T02:38:40;153950.09;;;6.41
39959;BMP280;25639;53.634;9.880;2022-09-28T02:41:24;153951.34;;;6.42
39959;BMP280;25639;53.634;9.880;2022-09-28T02:49:03;153933.53;;;6.35
39959;BMP280;25639;53.634;9.880;2022-09-28T02:56:51;153957.72;;;6.44
39959;BMP280;25639;53.634;9.880;2022-09-28T02:59:31;153956.47;;;6.44
39959;BMP280;25639;53.634;9.880;2022-09-28T03:02:08;153953.91;;;6.43
39959;BMP280;25639;53.634;9.880;2022-09-28T03:04:37;153947.56;;;6.40
39959;BMP280;25639;53.634;9.880;2022-09-28T03:07:09;153932.28;;;6.34
39959;BMP280;25639;53.634;9.880;2022-09-28T03:09:44;153913.22;;;6.26
39959;BMP280;25639;53.634;9.880;2022-09-28T03:12:12;153953.91;;;6.43
39959;BMP280;25639;53.634;9.880;2022-09-28T03:14:39;153932.28;;;6.34
39959;BMP280;25639;53.634;9.880;2022-09-28T03:17:04;153922.13;;;6.30
39959;BMP280;25639;53.634;9.880;2022-09-28T03:19:32;153920.81;;;6.29
39959;BMP280;25639;53.634;9.880;2022-09-28T03:21:58;153934.84;;;6.35
39959;BMP280;25639;53.634;9.880;2022-09-28T03:24:23;153920.81;;;6.29
39959;BMP280;25639;53.634;9.880;2022-09-28T03:26:49;153932.28;;;6.34
39959;BMP280;25639;53.634;9.880;2022-09-28T03:29:14;153897.94;;;6.20
39959;BMP280;25639;53.634;9.880;2022-09-28T03:31:39;153911.94;;;6.26
39959;BMP280;25639;53.634;9.880;2022-09-28T03:34:04;153931.03;;;6.34
39959;BMP280;25639;53.634;9.880;2022-09-28T03:36:30;153924.66;;;6.31
39959;BMP280;25639;53.634;9.880;2022-09-28T03:38:55;153938.69;;;6.37
39959;BMP280;25639;53.634;9.880;2022-09-28T03:41:20;153939.94;;;6.37
39959;BMP280;25639;53.634;9.880;2022-09-28T03:43:47;153943.75;;;6.39
39959;BMP280;25639;53.634;9.880;2022-09-28T03:46:12;153941.19;;;6.38
39959;BMP280;25639;53.634;9.880;2022-09-28T03:48:38;153936.09;;;6.36
39959;BMP280;25639;53.634;9.880;2022-09-28T03:51:04;153931.03;;;6.34
39959;BMP280;25639;53.634;9.880;2022-09-28T03:53:29;153920.81;;;6.29
39959;BMP280;25639;53.634;9.880;2022-09-28T03:55:55;153913.22;;;6.26
39959;BMP280;25639;53.634;9.880;2022-09-28T03:58:25;153917.06;;;6.28
39959;BMP280;25639;53.634;9.880;2022-09-28T04:00:51;153911.94;;;6.26
39959;BMP280;25639;53.634;9.880;2022-09-28T04:03:16;153863.66;;;6.06
39959;BMP280;25639;53.634;9.880;2022-09-28T04:05:48;153871.25;;;6.09
39959;BMP280;25639;53.634;9.880;2022-09-28T04:08:14;153889.03;;;6.17
39959;BMP280;25639;53.634;9.880;2022-09-28T04:10:39;153900.50;;;6.21
39959;BMP280;25639;53.634;9.880;2022-09-28T04:13:04;153910.66;;;6.25
39959;BMP280;25639;53.634;9.880;2022-09-28T04:15:30;153918.31;;;6.28
39959;BMP280;25639;53.634;9.880;2022-09-28T04:17:55;153931.03;;;6.34
39959;BMP280;25639;53.634;9.880;2022-09-28T04:20:20;153934.84;;;6.35
39959;BMP280;25639;53.634;9.880;2022-09-28T04:22:46;153941.19;;;6.38
39959;BMP280;25639;53.634;9.880;2022-09-28T04:25:11;153933.53;;;6.35
39959;BMP280;25639;53.634;9.880;2022-09-28T04:27:36;153931.03;;;6.34
39959;BMP280;25639;53.634;9.880;2022-09-28T04:30:20;153933.53;;;6.35
39959;BMP280;25639;53.634;9.880;2022-09-28T04:32:46;153924.66;;;6.31
39959;BMP280;25639;53.634;9.880;2022-09-28T04:35:11;153928.47;;;6.33
39959;BMP280;25639;53.634;9.880;2022-09-28T04:37:37;153928.47;;;6.33
39959;BMP280;25639;53.634;9.880;2022-09-28T04:40:02;153923.38;;;6.30
39959;BMP280;25639;53.634;9.880;2022-09-28T04:42:27;153941.19;;;6.38
39959;BMP280;25639;53.634;9.880;2022-09-28T04:44:53;153937.38;;;6.36
39959;BMP280;25639;53.634;9.880;2022-09-28T04:47:18;153910.66;;;6.25
39959;BMP280;25639;53.634;9.880;2022-09-28T04:49:43;153923.38;;;6.30
39959;BMP280;25639;53.634;9.880;2022-09-28T04:52:08;153948.84;;;6.41
39959;BMP280;25639;53.634;9.880;2022-09-28T04:54:34;153967.91;;;6.48
39959;BMP280;25639;53.634;9.880;2022-09-28T04:56:59;153962.81;;;6.46
39959;BMP280;25639;53.634;9.880;2022-09-28T04:59:25;153951.34;;;6.42
39959;BMP280;25639;53.634;9.880;2022-09-28T05:01:50;153939.94;;;6.37
39959;BMP280;25639;53.634;9.880;2022-09-28T05:04:17;153943.75;;;6.39
39959;BMP280;25639;53.634;9.880;2022-09-28T05:06:42;153961.56;;;6.46
39959;BMP280;25639;53.634;9.880;2022-09-28T05:09:08;153978.06;;;6.53
39959;BMP280;25639;53.634;9.880;2022-09-28T05:11:33;153978.06;;;6.53
39959;BMP280;25639;53.634;9.880;2022-09-28T05:13:58;153988.25;;;6.57
39959;BMP280;25639;53.634;9.880;2022-09-28T05:16:23;154006.06;;;6.64
39959;BMP280;25639;53.634;9.880;2022-09-28T05:18:53;153976.81;;;6.52
39959;BMP280;25639;53.634;9.880;2022-09-28T05:21:18;153967.91;;;6.48
39959;BMP280;25639;53.634;9.880;2022-09-28T05:23:47;153979.38;;;6.53
39959;BMP280;25639;53.634;9.880;2022-09-28T05:26:12;153972.97;;;6.51
39959;BMP280;25639;53.634;9.880;2022-09-28T05:28:38;154002.25;;;6.62
39959;BMP280;25639;53.634;9.880;2022-09-28T05:31:03;153979.38;;;6.53
39959;BMP280;25639;53.634;9.880;2022-09-28T05:33:29;153946.28;;;6.40
39959;BMP280;25639;53.634;9.880;2022-09-28T05:35:55;153943.75;;;6.39
39959;BMP280;25639;53.634;9.880;2022-09-28T05:38:20;153931.03;;;6.34
39959;BMP280;25639;53.634;9.880;2022-09-28T05:40:45;153906.84;;;6.24
39959;BMP280;25639;53.634;9.880;2022-09-28T05:43:11;153890.34;;;6.17
39959;BMP280;25639;53.634;9.880;2022-09-28T05:45:36;153896.69;;;6.20
39959;BMP280;25639;53.634;9.880;2022-09-28T05:48:01;153908.16;;;6.24
39959;BMP280;25639;53.634;9.880;2022-09-28T05:50:26;153943.75;;;6.39
39959;BMP280;25639;53.634;9.880;2022-09-28T05:55:23;153919.56;;;6.29
39959;BMP280;25639;53.634;9.880;2022-09-28T05:57:48;153901.75;;;6.22
39959;BMP280;25639;53.634;9.880;2022-09-28T06:00:13;153942.44;;;6.38
39959;BMP280;25639;53.634;9.880;2022-09-28T06:02:39;153943.75;;;6.39
39959;BMP280;25639;53.634;9.880;2022-09-28T06:05:04;153941.19;;;6.38
39959;BMP280;25639;53.634;9.880;2022-09-28T06:07:29;153957.72;;;6.44
39959;BMP280;25639;53.634;9.880;2022-09-28T06:09:54;153997.16;;;6.60
39959;BMP280;25639;53.634;9.880;2022-09-28T06:12:20;154013.66;;;6.67
39959;BMP280;25639;53.634;9.880;2022-09-28T06:14:45;154062.00;;;6.86
39959;BMP280;25639;53.634;9.880;2022-09-28T06:17:10;154056.94;;;6.84
39959;BMP280;25639;53.634;9.880;2022-09-28T06:19:36;153966.63;;;6.48
39959;BMP280;25639;53.634;9.880;2022-09-28T06:22:02;153936.09;;;6.36
39959;BMP280;25639;53.634;9.880;2022-09-28T06:24:27;153948.84;;;6.41
39959;BMP280;25639;53.634;9.880;2022-09-28T06:26:52;153962.81;;;6.46
39959;BMP280;25639;53.634;9.880;2022-09-28T06:29:17;153919.56;;;6.29
39959;BMP280;25639;53.634;9.880;2022-09-28T06:31:43;154007.34;;;6.64
39959;BMP280;25639;53.634;9.880;2022-09-28T06:34:09;154035.28;;;6.76
39959;BMP280;25639;53.634;9.880;2022-09-28T06:36:36;154022.56;;;6.71
39959;BMP280;25639;53.634;9.880;2022-09-28T06:39:01;154072.22;;;6.91
39959;BMP280;25639;53.634;9.880;2022-09-28T06:41:26;154116.75;;;7.09
39959;BMP280;25639;53.634;9.880;2022-09-28T06:43:52;154144.72;;;7.20
39959;BMP280;25639;53.634;9.880;2022-09-28T06:46:17;154109.09;;;7.05
39959;BMP280;25639;53.634;9.880;2022-09-28T06:48:42;154081.13;;;6.94
39959;BMP280;25639;53.634;9.880;2022-09-28T06:51:08;153995.88;;;6.60
39959;BMP280;25639;53.634;9.880;2022-09-28T06:53:34;154087.47;;;6.97
39959;BMP280;25639;53.634;9.880;2022-09-28T06:55:59;154101.47;;;7.02
39959;BMP280;25639;53.634;9.880;2022-09-28T06:58:26;154121.84;;;7.11
39959;BMP280;25639;53.634;9.880;2022-09-28T07:00:52;154154.88;;;7.24
39959;BMP280;25639;53.634;9.880;2022-09-28T07:03:18;154140.91;;;7.18
39959;BMP280;25639;53.634;9.880;2022-09-28T07:05:47;154129.47;;;7.14
39959;BMP280;25639;53.634;9.880;2022-09-28T07:08:13;154137.09;;;7.17
39959;BMP280;25639;53.634;9.880;2022-09-28T07:10:42;154167.63;;;7.29
39959;BMP280;25639;53.634;9.880;2022-09-28T07:13:07;154159.97;;;7.26
39959;BMP280;25639;53.634;9.880;2022-09-28T07:15:33;154140.91;;;7.18
39959;BMP280;25639;53.634;9.880;2022-09-28T07:17:59;154054.41;;;6.83
39959;BMP280;25639;53.634;9.880;2022-09-28T07:20:24;154050.59;;;6.82
39959;BMP280;25639;53.634;9.880;2022-09-28T07:22:53;154056.94;;;6.84
39959;BMP280;25639;53.634;9.880;2022-09-28T07:25:19;154096.38;;;7.00
39959;BMP280;25639;53.634;9.880;2022-09-28T07:27:44;154042.94;;;6.79
39959;BMP280;25639;53.634;9.880;2022-09-28T07:30:11;154073.47;;;6.91
39959;BMP280;25639;53.634;9.880;2022-09-28T07:32:36;154041.69;;;6.78
39959;BMP280;25639;53.634;9.880;2022-09-28T07:35:02;154111.66;;;7.06
39959;BMP280;25639;53.634;9.880;2022-09-28T07:37:31;154083.66;;;6.95
39959;BMP280;25639;53.634;9.880;2022-09-28T07:39:57;154093.84;;;6.99
39959;BMP280;25639;53.634;9.880;2022-09-28T07:42:41;154097.63;;;7.01
39959;BMP280;25639;53.634;9.880;2022-09-28T07:45:06;154166.38;;;7.29
39959;BMP280;25639;53.634;9.880;2022-09-28T07:47:31;154162.53;;;7.27
39959;BMP280;25639;53.634;9.880;2022-09-28T07:49:57;154156.19;;;7.24
39959;BMP280;25639;53.634;9.880;2022-09-28T07:52:22;154167.63;;;7.29
39959;BMP280;25639;53.634;9.880;2022-09-28T07:54:49;154229.97;;;7.54
39959;BMP280;25639;53.634;9.880;2022-09-28T07:57:16;154232.53;;;7.55
39959;BMP280;25639;53.634;9.880;2022-09-28T07:59:41;154209.66;;;7.46
39959;BMP280;25639;53.634;9.880;2022-09-28T08:02:07;154221.06;;;7.51
39959;BMP280;25639;53.634;9.880;2022-09-28T08:04:33;154261.78;;;7.67
39959;BMP280;25639;53.634;9.880;2022-09-28T08:06:58;154349.63;;;8.02
39959;BMP280;25639;53.634;9.880;2022-09-28T08:09:24;154256.72;;;7.65
39959;BMP280;25639;53.634;9.880;2022-09-28T08:11:49;154350.94;;;8.03
39959;BMP280;25639;53.634;9.880;2022-09-28T08:14:14;154419.69;;;8.31
39959;BMP280;25639;53.634;9.880;2022-09-28T08:16:40;154559.84;;;8.87
39959;BMP280;25639;53.634;9.880;2022-09-28T08:19:05;154631.19;;;9.16
39959;BMP280;25639;53.634;9.880;2022-09-28T08:21:30;154671.97;;;9.32
39959;BMP280;25639;53.634;9.880;2022-09-28T08:24:14;154661.78;;;9.28
39959;BMP280;25639;53.634;9.880;2022-09-28T08:26:40;154659.22;;;9.27
39959;BMP280;25639;53.634;9.880;2022-09-28T08:29:07;154613.34;;;9.09
39959;BMP280;25639;53.634;9.880;2022-09-28T08:31:32;154711.47;;;9.48
39959;BMP280;25639;53.634;9.880;2022-09-28T08:33:57;154739.50;;;9.60
39959;BMP280;25639;53.634;9.880;2022-09-28T08:36:23;154696.16;;;9.42
39959;BMP280;25639;53.634;9.880;2022-09-28T08:38:48;154807.03;;;9.87
39959;BMP280;25639;53.634;9.880;2022-09-28T08:44:07;154682.13;;;9.37
39959;BMP280;25639;53.634;9.880;2022-09-28T08:46:36;154647.72;;;9.23
39959;BMP280;25639;53.634;9.880;2022-09-28T08:51:37;154636.28;;;9.18
39959;BMP280;25639;53.634;9.880;2022-09-28T08:54:04;154756.06;;;9.66
39959;BMP280;25639;53.634;9.880;2022-09-28T08:59:00;155060.84;;;10.89
39959;BMP280;25639;53.634;9.880;2022-09-28T09:01:36;155055.75;;;10.87
39959;BMP280;25639;53.634;9.880;2022-09-28T09:04:03;155302.03;;;11.86
39959;BMP280;25639;53.634;9.880;2022-09-28T09:14:03;155793.81;;;13.84
39959;BMP280;25639;53.634;9.880;2022-09-28T09:27:03;155529.34;;;12.77
39959;BMP280;25639;53.634;9.880;2022-09-28T09:29:46;155515.28;;;12.72
39959;BMP280;25639;53.634;9.880;2022-09-28T09:35:01;155475.69;;;12.56
39959;BMP280;25639;53.634;9.880;2022-09-28T09:37:41;155416.97;;;12.32
39959;BMP280;25639;53.634;9.880;2022-09-28T09:48:24;155602.13;;;13.07
39959;BMP280;25639;53.634;9.880;2022-09-28T09:50:56;155636.63;;;13.21
39959;BMP280;25639;53.634;9.880;2022-09-28T09:53:24;155653.25;;;13.27
39959;BMP280;25639;53.634;9.880;2022-09-28T09:55:53;155787.44;;;13.81
39959;BMP280;25639;53.634;9.880;2022-09-28T09:58:23;155772.09;;;13.75
39959;BMP280;25639;53.634;9.880;2022-09-28T10:00:51;155672.44;;;13.35
39959;BMP280;25639;53.634;9.880;2022-09-28T10:03:20;155571.47;;;12.94
39959;BMP280;25639;53.634;9.880;2022-09-28T10:05:47;155628.94;;;13.18
39959;BMP280;25639;53.634;9.880;2022-09-28T10:08:14;155459.09;;;12.49
39959;BMP280;25639;53.634;9.880;2022-09-28T10:10:47;155254.78;;;11.67
39959;BMP280;25639;53.634;9.880;2022-09-28T10:13:13;155198.63;;;11.44
39959;BMP280;25639;53.634;9.880;2022-09-28T10:15:39;155402.91;;;12.27
39959;BMP280;25639;53.634;9.880;2022-09-28T10:18:06;155469.28;;;12.53
39959;BMP280;25639;53.634;9.880;2022-09-28T10:20:37;155517.81;;;12.73
39959;BMP280;25639;53.634;9.880;2022-09-28T10:23:03;155304.56;;;11.87
39959;BMP280;25639;53.634;9.880;2022-09-28T10:25:30;155442.47;;;12.43
39959;BMP280;25639;53.634;9.880;2022-09-28T10:27:58;155502.53;;;12.67
39959;BMP280;25639;53.634;9.880;2022-09-28T10:30:24;155439.97;;;12.42
39959;BMP280;25639;53.634;9.880;2022-09-28T10:32:53;155498.69;;;12.65
39959;BMP280;25639;53.634;9.880;2022-09-28T10:38:12;155470.59;;;12.54
39959;BMP280;25639;53.634;9.880;2022-09-28T10:40:46;155501.25;;;12.66
39959;BMP280;25639;53.634;9.880;2022-09-28T10:43:25;155542.13;;;12.83
39959;BMP280;25639;53.634;9.880;2022-09-28T10:46:02;155637.88;;;13.21
39959;BMP280;25639;53.634;9.880;2022-09-28T10:48:30;155623.84;;;13.15
39959;BMP280;25639;53.634;9.880;2022-09-28T10:51:05;155476.97;;;12.56
39959;BMP280;25639;53.634;9.880;2022-09-28T10:53:30;155576.56;;;12.96
39959;BMP280;25639;53.634;9.880;2022-09-28T10:56:00;155673.72;;;13.35
39959;BMP280;25639;53.634;9.880;2022-09-28T11:01:02;155733.78;;;13.60
39959;BMP280;25639;53.634;9.880;2022-09-28T11:03:29;155654.50;;;13.28
39959;BMP280;25639;53.634;9.880;2022-09-28T11:05:56;155602.13;;;13.07
39959;BMP280;25639;53.634;9.880;2022-09-28T11:08:28;155483.34;;;12.59
39959;BMP280;25639;53.634;9.880;2022-09-28T11:11:01;155374.81;;;12.15
39959;BMP280;25639;53.634;9.880;2022-09-28T11:13:26;155443.78;;;12.43
39959;BMP280;25639;53.634;9.880;2022-09-28T11:15:52;155539.53;;;12.82
39959;BMP280;25639;53.634;9.880;2022-09-28T11:18:18;155548.47;;;12.85
39959;BMP280;25639;53.634;9.880;2022-09-28T11:20:46;155574.03;;;12.95
39959;BMP280;25639;53.634;9.880;2022-09-28T11:23:17;155368.47;;;12.13
39959;BMP280;25639;53.634;9.880;2022-09-28T11:25:53;155438.63;;;12.41
39959;BMP280;25639;53.634;9.880;2022-09-28T11:28:23;155548.47;;;12.85
39959;BMP280;25639;53.634;9.880;2022-09-28T11:30:52;155556.16;;;12.88
39959;BMP280;25639;53.634;9.880;2022-09-28T11:40:59;155671.19;;;13.34
39959;BMP280;25639;53.634;9.880;2022-09-28T11:46:00;155695.44;;;13.44
39959;BMP280;25639;53.634;9.880;2022-09-28T11:48:33;155755.50;;;13.68
39959;BMP280;25639;53.634;9.880;2022-09-28T11:51:03;155795.13;;;13.84
39959;BMP280;25639;53.634;9.880;2022-09-28T11:53:33;155820.66;;;13.95
39959;BMP280;25639;53.634;9.880;2022-09-28T11:56:17;155855.19;;;14.08
39959;BMP280;25639;53.634;9.880;2022-09-28T11:58:45;155956.19;;;14.49
39959;BMP280;25639;53.634;9.880;2022-09-28T12:03:41;155929.34;;;14.38
39959;BMP280;25639;53.634;9.880;2022-09-28T12:06:11;155903.75;;;14.28
39959;BMP280;25639;53.634;9.880;2022-09-28T12:08:40;156027.81;;;14.78
39959;BMP280;25639;53.634;9.880;2022-09-28T12:11:09;156073.84;;;14.96
39959;BMP280;25639;53.634;9.880;2022-09-28T12:13:41;156091.75;;;15.03
39959;BMP280;25639;53.634;9.880;2022-09-28T12:16:16;155952.34;;;14.47
39959;BMP280;25639;53.634;9.880;2022-09-28T12:18:58;155919.06;;;14.34
39959;BMP280;25639;53.634;9.880;2022-09-28T12:24:11;155772.09;;;13.75
39959;BMP280;25639;53.634;9.880;2022-09-28T12:26:41;155643.00;;;13.23
39959;BMP280;25639;53.634;9.880;2022-09-28T12:29:12;155751.69;;;13.67
39959;BMP280;25639;53.634;9.880;2022-09-28T12:31:52;155724.84;;;13.56
39959;BMP280;25639;53.634;9.880;2022-09-28T12:34:20;155690.31;;;13.42
39959;BMP280;25639;53.634;9.880;2022-09-28T12:36:59;155795.13;;;13.84
39959;BMP280;25639;53.634;9.880;2022-09-28T12:47:22;155894.81;;;14.24
39959;BMP280;25639;53.634;9.880;2022-09-28T12:58:13;156023.97;;;14.76
39959;BMP280;25639;53.634;9.880;2022-09-28T13:03:48;155745.25;;;13.64
39959;BMP280;25639;53.634;9.880;2022-09-28T13:06:17;155860.28;;;14.10
39959;BMP280;25639;53.634;9.880;2022-09-28T13:11:21;155880.75;;;14.19
39959;BMP280;25639;53.634;9.880;2022-09-28T13:19:11;155916.53;;;14.33
39959;BMP280;25639;53.634;9.880;2022-09-28T13:21:45;155988.19;;;14.62
39959;BMP280;25639;53.634;9.880;2022-09-28T13:24:13;156062.38;;;14.92
39959;BMP280;25639;53.634;9.880;2022-09-28T13:26:41;156094.31;;;15.04
39959;BMP280;25639;53.634;9.880;2022-09-28T13:29:12;156099.44;;;15.06
39959;BMP280;25639;53.634;9.880;2022-09-28T13:31:45;156040.63;;;14.83
39959;BMP280;25639;53.634;9.880;2022-09-28T13:34:14;156126.28;;;15.17
39959;BMP280;25639;53.634;9.880;2022-09-28T13:36:44;156053.41;;;14.88
39959;BMP280;25639;53.634;9.880;2022-09-28T13:41:53;156197.91;;;15.46
39959;BMP280;25639;53.634;9.880;2022-09-28T13:44:22;156183.84;;;15.40
39959;BMP280;25639;53.634;9.880;2022-09-28T13:49:30;156192.81;;;15.44
39959;BMP280;25639;53.634;9.880;2022-09-28T13:54:33;156240.13;;;15.63
39959;BMP280;25639;53.634;9.880;2022-09-28T13:57:16;156270.88;;;15.75
39959;BMP280;25639;53.634;9.880;2022-09-28T14:04:56;156242.69;;;15.64
39959;BMP280;25639;53.634;9.880;2022-09-28T14:07:26;156301.59;;;15.88
39959;BMP280;25639;53.634;9.880;2022-09-28T14:10:18;156233.75;;;15.60
39959;BMP280;25639;53.634;9.880;2022-09-28T14:12:51;156231.16;;;15.59
39959;BMP280;25639;53.634;9.880;2022-09-28T14:20:38;156219.69;;;15.55
39959;BMP280;25639;53.634;9.880;2022-09-28T14:23:17;156085.38;;;15.01
39959;BMP280;25639;53.634;9.880;2022-09-28T14:28:36;156113.50;;;15.12
39959;BMP280;25639;53.634;9.880;2022-09-28T14:31:07;156130.13;;;15.19
39959;BMP280;25639;53.634;9.880;2022-09-28T14:33:32;156163.38;;;15.32
39959;BMP280;25639;53.634;9.880;2022-09-28T14:35:59;156145.47;;;15.25
39959;BMP280;25639;53.634;9.880;2022-09-28T14:38:30;156155.72;;;15.29
39959;BMP280;25639;53.634;9.880;2022-09-28T14:41:24;156109.66;;;15.11
39959;BMP280;25639;53.634;9.880;2022-09-28T14:53:51;155873.06;;;14.16
39959;BMP280;25639;53.634;9.880;2022-09-28T14:56:17;155905.03;;;14.28
39959;BMP280;25639;53.634;9.880;2022-09-28T14:58:43;155825.75;;;13.97
39959;BMP280;25639;53.634;9.880;2022-09-28T15:01:11;155815.56;;;13.92
39959;BMP280;25639;53.634;9.880;2022-09-28T15:03:41;155821.97;;;13.95
39959;BMP280;25639;53.634;9.880;2022-09-28T15:06:12;155848.81;;;14.06
39959;BMP280;25639;53.634;9.880;2022-09-28T15:08:38;155804.06;;;13.88
39959;BMP280;25639;53.634;9.880;2022-09-28T15:11:04;155736.31;;;13.61
39959;BMP280;25639;53.634;9.880;2022-09-28T15:13:30;155729.94;;;13.58
39959;BMP280;25639;53.634;9.880;2022-09-28T15:16:01;155735.03;;;13.60
39959;BMP280;25639;53.634;9.880;2022-09-28T15:18:31;155695.44;;;13.44
39959;BMP280;25639;53.634;9.880;2022-09-28T15:21:02;155649.41;;;13.26
39959;BMP280;25639;53.634;9.880;2022-09-28T15:23:35;155611.06;;;13.10
39959;BMP280;25639;53.634;9.880;2022-09-28T15:26:01;155648.16;;;13.25
39959;BMP280;25639;53.634;9.880;2022-09-28T15:28:26;155637.88;;;13.21
39959;BMP280;25639;53.634;9.880;2022-09-28T15:30:57;155646.84;;;13.25
39959;BMP280;25639;53.634;9.880;2022-09-28T15:33:27;155623.84;;;13.15
39959;BMP280;25639;53.634;9.880;2022-09-28T15:36:13;155630.25;;;13.18
39959;BMP280;25639;53.634;9.880;2022-09-28T15:38:42;155604.69;;;13.08
39959;BMP280;25639;53.634;9.880;2022-09-28T15:41:08;155552.31;;;12.87
39959;BMP280;25639;53.634;9.880;2022-09-28T15:43:34;155547.22;;;12.85
39959;BMP280;25639;53.634;9.880;2022-09-28T15:46:17;155548.47;;;12.85
39959;BMP280;25639;53.634;9.880;2022-09-28T15:48:54;155521.66;;;12.74
39959;BMP280;25639;53.634;9.880;2022-09-28T15:51:21;155503.78;;;12.67
39959;BMP280;25639;53.634;9.880;2022-09-28T15:56:19;155415.66;;;12.32
39959;BMP280;25639;53.634;9.880;2022-09-28T15:58:53;155422.06;;;12.34
39959;BMP280;25639;53.634;9.880;2022-09-28T16:01:33;155419.50;;;12.33
39959;BMP280;25639;53.634;9.880;2022-09-28T16:07:03;155392.69;;;12.23
39959;BMP280;25639;53.634;9.880;2022-09-28T16:09:29;155391.44;;;12.22
39959;BMP280;25639;53.634;9.880;2022-09-28T16:11:55;155358.22;;;12.09
39959;BMP280;25639;53.634;9.880;2022-09-28T16:14:20;155355.69;;;12.08
39959;BMP280;25639;53.634;9.880;2022-09-28T16:16:48;155342.91;;;12.02
39959;BMP280;25639;53.634;9.880;2022-09-28T16:21:47;155314.84;;;11.91
39959;BMP280;25639;53.634;9.880;2022-09-28T16:24:51;155288.00;;;11.80
39959;BMP280;25639;53.634;9.880;2022-09-28T16:30:17;155249.69;;;11.65
39959;BMP280;25639;53.634;9.880;2022-09-28T16:37:42;155169.31;;;11.33
39959;BMP280;25639;53.634;9.880;2022-09-28T16:40:08;155150.19;;;11.25
39959;BMP280;25639;53.634;9.880;2022-09-28T16:42:33;155139.94;;;11.21
39959;BMP280;25639;53.634;9.880;2022-09-28T16:44:59;155125.91;;;11.15